Time,TemperatureF,DewpointF,PressureIn,WindDirection,WindDirectionDegrees,WindSpeedMPH,WindSpeedGustMPH,Humidity,HourlyPrecipIn,Conditions,Clouds,dailyrainin,SoftwareType,DateUTC
2013-08-20 00:22:00,75.0,73.0,29.98,SE,124,0.0,3.0,95,0.00,,,0.01,,2013-08-20 05:22:00,
2013-08-20 00:52:00,75.0,74.0,29.98,SE,124,0.0,3.0,96,0.00,,,0.00,,2013-08-20 05:52:00,
2013-08-20 01:11:00,75.0,74.0,29.98,SE,124,0.0,2.0,96,0.00,,,0.00,,2013-08-20 06:11:00,
2013-08-20 01:21:00,75.0,74.0,29.98,ESE,105,1.0,4.0,96,0.00,,,0.00,,2013-08-20 06:21:00,
2013-08-20 01:42:00,75.0,74.0,29.98,ESE,106,1.0,3.0,96,0.00,,,0.00,,2013-08-20 06:42:00,
2013-08-20 01:52:00,75.0,74.0,29.98,ESE,106,0.0,1.0,96,0.00,,,0.00,,2013-08-20 06:52:00,
2013-08-20 02:22:00,74.0,73.0,29.97,ESE,106,0.0,1.0,96,0.00,,,0.00,,2013-08-20 07:22:00,
2013-08-20 02:52:00,74.0,73.0,29.96,ESE,106,0.0,2.0,96,0.00,,,0.00,,2013-08-20 07:52:00,
2013-08-20 03:11:00,74.0,73.0,29.96,ESE,106,0.0,2.0,96,0.00,,,0.00,,2013-08-20 08:11:00,
2013-08-20 03:21:00,74.0,73.0,29.96,ESE,106,0.0,1.0,96,0.00,,,0.00,,2013-08-20 08:21:00,
2013-08-20 03:52:00,74.0,73.0,29.96,ESE,106,0.0,1.0,96,0.00,,,0.00,,2013-08-20 08:52:00,
2013-08-20 04:01:00,74.0,73.0,29.96,ESE,106,0.0,1.0,96,0.00,,,0.00,,2013-08-20 09:01:00,
2013-08-20 04:21:00,74.0,73.0,29.96,ESE,106,0.0,0.0,96,0.00,,,0.00,,2013-08-20 09:21:00,
2013-08-20 04:33:00,74.0,73.0,29.96,ESE,106,0.0,0.0,96,0.00,,,0.00,,2013-08-20 09:33:00,
2013-08-20 04:42:00,74.0,73.0,29.96,ESE,106,0.0,0.0,96,0.00,,,0.00,,2013-08-20 09:42:00,
2013-08-20 04:53:00,73.0,72.0,29.95,ESE,106,0.0,1.0,97,0.01,,,0.01,,2013-08-20 09:53:00,
2013-08-20 05:22:00,73.0,72.0,29.95,ESE,106,0.0,3.0,97,0.01,,,0.01,,2013-08-20 10:22:00,
2013-08-20 05:52:00,73.0,72.0,29.96,ESE,112,0.0,3.0,98,0.00,,,0.01,,2013-08-20 10:52:00,
2013-08-20 06:11:00,73.0,72.0,29.96,East,100,0.0,4.0,98,0.00,,,0.01,,2013-08-20 11:11:00,
2013-08-20 06:22:00,74.0,73.0,29.96,East,100,0.0,2.0,98,0.00,,,0.01,,2013-08-20 11:22:00,
2013-08-20 06:51:00,73.0,72.0,29.97,East,100,0.0,2.0,98,0.00,,,0.01,,2013-08-20 11:51:00,
2013-08-20 07:01:00,73.0,72.0,29.97,East,100,0.0,2.0,98,0.00,,,0.01,,2013-08-20 12:01:00,
2013-08-20 07:12:00,73.0,72.0,29.97,East,100,0.0,2.0,98,0.00,,,0.01,,2013-08-20 12:12:00,
2013-08-20 07:21:00,74.0,73.0,29.98,East,100,0.0,2.0,98,0.00,,,0.01,,2013-08-20 12:21:00,
2013-08-20 07:52:00,76.0,75.0,29.98,East,89,0.0,4.0,96,0.00,,,0.01,,2013-08-20 12:52:00,
2013-08-20 08:21:00,78.0,75.0,29.99,ESE,122,1.0,3.0,91,0.00,,,0.01,,2013-08-20 13:21:00,
2013-08-20 08:52:00,80.0,75.0,30.00,SE,136,1.0,4.0,86,0.00,,,0.01,,2013-08-20 13:52:00,
2013-08-20 09:21:00,83.0,75.0,30.01,ESE,114,0.0,7.0,77,0.00,,,0.01,,2013-08-20 14:21:00,
2013-08-20 10:11:00,85.0,74.0,30.01,SE,137,5.0,9.0,69,0.00,,,0.01,,2013-08-20 15:11:00,
2013-08-20 10:22:00,87.0,75.0,30.02,SSE,149,1.0,7.0,67,0.00,,,0.01,,2013-08-20 15:22:00,
2013-08-20 10:34:00,87.0,75.0,30.02,SSE,149,1.0,7.0,67,0.00,,,0.01,,2013-08-20 15:34:00,
2013-08-20 10:53:00,86.0,74.0,30.02,SE,131,1.0,9.0,67,0.00,,,0.01,,2013-08-20 15:53:00,
2013-08-20 11:30:00,-999.0,-99.9,30.02,East,100,3.0,9.0,63,0.00,,,0.01,,2013-08-20 16:30:00,
2013-08-20 11:52:00,78.0,72.0,30.03,South,169,3.0,14.0,82,0.03,,,0.04,,2013-08-20 16:52:00,
2013-08-20 12:03:00,78.0,72.0,30.03,South,169,3.0,14.0,82,0.03,,,0.04,,2013-08-20 17:03:00,
2013-08-20 12:12:00,78.0,72.0,30.03,South,169,3.0,14.0,82,0.03,,,0.04,,2013-08-20 17:12:00,
2013-08-20 12:24:00,76.0,72.0,30.04,South,176,4.0,10.0,88,0.03,,,0.04,,2013-08-20 17:24:00,
2013-08-20 12:52:00,76.0,72.0,30.04,SSW,192,0.0,3.0,88,0.03,,,0.04,,2013-08-20 17:52:00,
2013-08-20 13:12:00,76.0,72.0,30.03,SSE,160,0.0,4.0,87,0.00,,,0.04,,2013-08-20 18:12:00,
2013-08-20 13:22:00,77.0,72.0,30.02,SSE,160,0.0,3.0,85,0.00,,,0.04,,2013-08-20 18:22:00,
2013-08-20 13:52:00,78.0,71.0,30.01,SSE,160,0.0,2.0,80,0.00,,,0.04,,2013-08-20 18:52:00,
2013-08-20 14:01:00,78.0,71.0,30.01,SSE,160,0.0,2.0,80,0.00,,,0.04,,2013-08-20 19:01:00,
2013-08-20 14:11:00,78.0,71.0,30.01,SSE,160,0.0,2.0,80,0.00,,,0.04,,2013-08-20 19:11:00,
2013-08-20 14:21:00,79.0,72.0,30.01,SSE,160,0.0,1.0,78,0.00,,,0.04,,2013-08-20 19:21:00,
2013-08-20 14:52:00,81.0,73.0,30.00,SE,145,0.0,5.0,76,0.01,,,0.05,,2013-08-20 19:52:00,
2013-08-20 15:12:00,83.0,74.0,29.99,SE,146,1.0,3.0,75,0.01,,,0.05,,2013-08-20 20:12:00,
2013-08-20 15:22:00,83.0,74.0,29.99,SE,144,0.0,4.0,74,0.01,,,0.05,,2013-08-20 20:22:00,
2013-08-20 15:52:00,85.0,74.0,29.99,SE,144,0.0,2.0,69,0.00,,,0.05,,2013-08-20 20:52:00,
2013-08-20 16:22:00,86.0,74.0,29.99,ESE,122,0.0,4.0,67,0.00,,,0.05,,2013-08-20 21:22:00,
2013-08-20 16:55:00,87.0,74.0,29.98,East,94,2.0,4.0,65,0.00,,,0.05,,2013-08-20 21:55:00,
2013-08-20 17:24:00,87.0,73.0,29.98,ENE,70,1.0,3.0,64,0.00,,,0.05,,2013-08-20 22:24:00,
2013-08-20 17:53:00,87.0,74.0,29.99,ESE,118,1.0,4.0,65,0.00,,,0.05,,2013-08-20 22:53:00,
2013-08-20 18:22:00,85.0,75.0,29.99,East,91,0.0,2.0,71,0.00,,,0.05,,2013-08-20 23:22:00,
2013-08-20 18:52:00,82.0,72.0,29.99,SE,134,2.0,12.0,73,0.00,,,0.05,,2013-08-20 23:52:00,
2013-08-20 19:22:00,80.0,72.0,29.99,SSE,153,0.0,2.0,77,0.00,,,0.05,,2013-08-21 00:22:00,
2013-08-20 19:42:00,80.0,73.0,29.98,SSE,153,0.0,1.0,79,0.00,,,0.05,,2013-08-21 00:42:00,
2013-08-20 19:52:00,80.0,74.0,29.98,SSE,153,0.0,1.0,81,0.00,,,0.05,,2013-08-21 00:52:00,
2013-08-20 20:02:00,80.0,74.0,29.98,SSE,153,0.0,1.0,81,0.00,,,0.05,,2013-08-21 01:02:00,
2013-08-20 20:11:00,80.0,74.0,29.98,SSE,153,0.0,1.0,81,0.00,,,0.05,,2013-08-21 01:11:00,
2013-08-20 20:21:00,79.0,73.0,29.98,SSE,153,0.0,1.0,83,0.00,,,0.05,,2013-08-21 01:21:00,
2013-08-20 20:42:00,79.0,74.0,29.98,SSE,153,2.0,4.0,85,0.00,,,0.05,,2013-08-21 01:42:00,
2013-08-20 20:52:00,79.0,74.0,29.98,SSE,153,2.0,4.0,85,0.00,,,0.05,,2013-08-21 01:52:00,
2013-08-20 21:12:00,78.0,73.0,29.99,SE,141,1.0,10.0,86,0.00,,,0.05,,2013-08-21 02:12:00,
2013-08-20 21:22:00,77.0,72.0,30.01,ESE,105,2.0,10.0,84,0.00,,,0.05,,2013-08-21 02:22:00,
2013-08-20 21:42:00,77.0,72.0,30.01,ESE,117,4.0,6.0,84,0.00,,,0.05,,2013-08-21 02:42:00,
2013-08-20 21:52:00,76.0,71.0,30.02,East,91,3.0,5.0,84,0.00,,,0.05,,2013-08-21 02:52:00,
2013-08-20 22:12:00,76.0,71.0,30.02,East,91,1.0,4.0,84,0.00,,,0.05,,2013-08-21 03:12:00,
2013-08-20 22:23:00,75.0,70.0,30.03,ESE,121,3.0,10.0,85,0.00,,,0.05,,2013-08-21 03:23:00,
2013-08-20 22:35:00,75.0,70.0,30.03,ESE,121,3.0,10.0,85,0.00,,,0.05,,2013-08-21 03:35:00,
2013-08-20 22:55:00,75.0,71.0,30.04,ESE,102,3.0,7.0,86,0.00,,,0.05,,2013-08-21 03:55:00,
2013-08-20 23:14:00,75.0,71.0,30.04,East,96,2.0,6.0,87,0.00,,,0.05,,2013-08-21 04:14:00,
2013-08-20 23:24:00,75.0,71.0,30.04,ESE,119,1.0,6.0,88,0.00,,,0.05,,2013-08-21 04:24:00,
2013-08-20 23:54:00,74.0,71.0,30.05,SE,138,2.0,4.0,89,0.00,,,0.05,,2013-08-21 04:54:00,